Time;durP1;ratioP1;P1;durP2;ratioP2;P2;SDS_P1;SDS_P2;PMS_P1;PMS_P2;Temp;Humidity;BMP_temperature;BMP_pressure;BME280_temperature;BME280_humidity;BME280_pressure;Samples;Min_cycle;Max_cycle;Signal;HPM_P1;HPM_P2
2023/05/18 00:02:04;;;;;;;4.72;0.77;;;11.30;99.90;;;;;;4992073;28;20109;-40
2023/05/18 00:04:32;;;;;;;3.78;0.63;;;11.30;99.90;;;;;;4992086;28;20034;-56
2023/05/18 00:07:02;;;;;;;1.20;1.10;;;11.30;99.90;;;;;;4991839;28;20022;-51
2023/05/18 00:09:29;;;;;;;1.20;0.60;;;11.30;99.90;;;;;;4992046;28;20069;-51
2023/05/18 00:11:55;;;;;;;3.30;1.42;;;11.40;99.90;;;;;;4991982;28;20843;-52
2023/05/18 00:14:21;;;;;;;1.05;0.57;;;11.20;99.90;;;;;;4991979;28;20030;-52
2023/05/18 00:16:47;;;;;;;3.50;0.77;;;11.20;99.90;;;;;;4991732;28;20359;-55
2023/05/18 00:19:14;;;;;;;2.08;1.10;;;11.30;99.90;;;;;;4991427;28;20039;-57
2023/05/18 00:21:45;;;;;;;1.73;0.95;;;11.30;99.90;;;;;;4991553;28;20026;-51
2023/05/18 00:24:11;;;;;;;1.27;0.73;;;11.30;99.90;;;;;;4991684;28;20031;-56
2023/05/18 00:26:39;;;;;;;2.72;1.15;;;11.30;99.90;;;;;;4991539;28;20030;-40
2023/05/18 00:29:05;;;;;;;0.40;0.40;;;11.30;99.90;;;;;;4991437;28;20053;-42
2023/05/18 00:31:35;;;;;;;1.75;0.80;;;11.30;99.90;;;;;;4991492;28;20505;-51
2023/05/18 00:34:02;;;;;;;1.52;0.88;;;11.30;99.90;;;;;;4991277;28;20486;-49
2023/05/18 00:36:28;;;;;;;0.38;0.38;;;11.30;99.90;;;;;;5006370;28;20045;-57
2023/05/18 00:38:53;;;;;;;7.65;0.90;;;11.30;99.90;;;;;;4991302;28;20031;-55
2023/05/18 00:41:20;;;;;;;3.25;0.95;;;11.30;99.90;;;;;;4991158;28;20182;-48
2023/05/18 00:43:46;;;;;;;7.13;0.60;;;11.30;99.90;;;;;;4991390;28;20029;-44
2023/05/18 00:46:11;;;;;;;1.20;0.68;;;11.30;99.90;;;;;;4991208;28;20026;-39
2023/05/18 00:48:37;;;;;;;3.70;0.82;;;11.30;99.90;;;;;;4990962;28;20034;-40
2023/05/18 00:51:04;;;;;;;4.07;0.88;;;11.30;99.90;;;;;;4991408;28;20050;-40
2023/05/18 00:53:31;;;;;;;0.65;0.57;;;11.30;99.90;;;;;;4991172;28;20447;-40
2023/05/18 00:55:57;;;;;;;1.35;0.90;;;11.30;99.90;;;;;;4991388;28;20034;-59
2023/05/18 00:58:23;;;;;;;5.90;2.33;;;11.30;99.90;;;;;;4991049;28;20363;-55
2023/05/18 01:00:49;;;;;;;4.18;1.88;;;11.30;99.90;;;;;;4990627;28;20470;-41
2023/05/18 01:03:14;;;;;;;7.63;1.48;;;11.30;99.90;;;;;;4991172;28;20044;-52
2023/05/18 01:05:41;;;;;;;0.35;0.35;;;11.30;99.90;;;;;;4991363;28;20033;-51
2023/05/18 01:08:07;;;;;;;2.72;1.15;;;11.30;99.90;;;;;;4991216;28;20084;-48
2023/05/18 01:10:38;;;;;;;3.38;1.10;;;11.30;99.90;;;;;;4991275;28;20169;-52
2023/05/18 01:13:23;;;;;;;5.07;1.25;;;11.30;99.90;;;;;;4991087;28;20030;-57
2023/05/18 01:15:53;;;;;;;3.28;0.55;;;11.30;99.90;;;;;;4991082;28;20031;-50
2023/05/18 01:18:23;;;;;;;;;;;11.30;99.90;;;;;;4991304;28;20032;-47
2023/05/18 01:20:58;;;;;;;1.90;0.95;;;11.30;99.90;;;;;;4991195;28;19909;-47
2023/05/18 01:23:43;;;;;;;0.75;0.60;;;11.30;99.90;;;;;;4991063;28;20751;-55
2023/05/18 01:26:15;;;;;;;0.82;0.80;;;11.30;99.90;;;;;;4991007;28;20035;-57
2023/05/18 01:28:45;;;;;;;7.10;1.02;;;11.30;99.90;;;;;;4990847;28;20097;-43
2023/05/18 01:31:11;;;;;;;1.05;1.00;;;11.30;99.90;;;;;;4991068;28;20029;-46
2023/05/18 01:33:36;;;;;;;1.58;0.95;;;11.30;99.90;;;;;;4990868;28;20033;-43
2023/05/18 01:36:02;;;;;;;0.68;0.68;;;11.20;99.90;;;;;;4990988;28;20120;-53
2023/05/18 01:38:28;;;;;;;4.85;1.60;;;11.20;99.90;;;;;;4990659;28;20030;-46
2023/05/18 01:41:05;;;;;;;1.13;0.73;;;11.20;99.90;;;;;;5005869;28;20093;-55
2023/05/18 01:43:34;;;;;;;2.38;0.95;;;11.20;99.90;;;;;;4990827;28;20053;-55
2023/05/18 01:46:10;;;;;;;1.05;0.60;;;11.10;99.90;;;;;;4990910;28;20069;-51
2023/05/18 01:48:38;;;;;;;0.60;0.50;;;11.10;99.90;;;;;;4990723;28;20022;-46
2023/05/18 01:51:06;;;;;;;0.98;0.82;;;11.10;99.90;;;;;;4990526;28;20026;-53
2023/05/18 01:53:40;;;;;;;0.73;0.65;;;11.00;99.90;;;;;;4991033;28;20085;-49
2023/05/18 01:56:07;;;;;;;1.42;0.70;;;11.00;99.90;;;;;;4990687;28;20517;-47
2023/05/18 01:58:36;;;;;;;7.47;1.42;;;11.00;99.90;;;;;;4990568;28;20126;-52
2023/05/18 02:01:02;;;;;;;2.78;1.10;;;11.00;99.90;;;;;;4990704;28;20030;-44
2023/05/18 02:03:30;;;;;;;6.97;1.52;;;11.00;99.90;;;;;;4990617;28;20026;-48
2023/05/18 02:05:56;;;;;;;1.13;0.73;;;11.00;99.90;;;;;;4990635;28;20033;-51
2023/05/18 02:08:21;;;;;;;2.72;0.90;;;11.00;99.90;;;;;;4990761;28;20022;-51
2023/05/18 02:10:47;;;;;;;2.15;0.88;;;11.00;99.90;;;;;;4990572;28;20387;-55
2023/05/18 02:13:13;;;;;;;1.65;0.93;;;10.90;99.90;;;;;;4994224;28;20034;-42
2023/05/18 02:15:38;;;;;;;2.80;1.30;;;10.90;99.90;;;;;;4993850;28;20045;-43
2023/05/18 02:18:04;;;;;;;3.10;1.48;;;10.90;99.90;;;;;;4993797;28;20050;-53
2023/05/18 02:20:32;;;;;;;1.23;0.75;;;10.90;99.90;;;;;;4993799;28;20080;-53
2023/05/18 02:22:58;;;;;;;4.28;1.25;;;10.90;99.90;;;;;;4993846;28;20454;-50
2023/05/18 02:25:25;;;;;;;3.20;1.35;;;10.90;99.90;;;;;;4993725;28;20065;-47
2023/05/18 02:27:51;;;;;;;1.75;0.82;;;10.90;99.90;;;;;;4993341;28;20057;-47
2023/05/18 02:30:17;;;;;;;3.38;1.52;;;10.80;99.90;;;;;;4993454;28;20675;-51
2023/05/18 02:32:45;;;;;;;3.55;1.33;;;10.80;99.90;;;;;;4993308;28;20026;-51
2023/05/18 02:35:11;;;;;;;2.10;0.80;;;10.80;99.90;;;;;;4993317;28;20092;-46
2023/05/18 02:37:41;;;;;;;2.42;1.10;;;10.80;99.90;;;;;;4993259;28;20042;-57
2023/05/18 02:40:11;;;;;;;3.08;1.63;;;10.70;99.90;;;;;;4992893;28;20027;-52
2023/05/18 02:42:37;;;;;;;0.40;0.40;;;10.70;99.90;;;;;;4993550;28;20057;-48
2023/05/18 02:45:03;;;;;;;1.17;0.82;;;10.70;99.90;;;;;;4993366;28;20030;-51
2023/05/18 02:47:28;;;;;;;2.13;1.02;;;10.70;99.90;;;;;;4993768;28;20052;-50
2023/05/18 02:49:54;;;;;;;4.22;2.08;;;10.60;99.90;;;;;;4993400;28;20030;-48
2023/05/18 02:52:20;;;;;;;2.13;1.38;;;10.60;99.90;;;;;;4993661;28;20031;-46
2023/05/18 02:54:45;;;;;;;1.02;0.68;;;10.60;99.90;;;;;;4993512;28;20102;-54
2023/05/18 02:57:12;;;;;;;3.65;1.42;;;10.60;99.90;;;;;;4993259;28;20093;-53
2023/05/18 02:59:38;;;;;;;9.48;1.30;;;10.60;99.90;;;;;;4993081;28;20437;-51
2023/05/18 03:02:04;;;;;;;13.23;1.60;;;10.60;99.90;;;;;;4993293;28;20725;-54
2023/05/18 03:04:30;;;;;;;1.55;1.20;;;10.60;99.90;;;;;;4993366;28;20033;-44
2023/05/18 03:06:57;;;;;;;2.55;0.95;;;10.60;99.90;;;;;;4993189;28;20481;-45
2023/05/18 03:09:22;;;;;;;5.70;1.17;;;10.60;99.90;;;;;;4993147;28;20487;-52
2023/05/18 03:11:49;;;;;;;1.08;0.77;;;10.60;99.90;;;;;;4993213;28;20022;-49
2023/05/18 03:14:14;;;;;;;1.90;0.88;;;10.60;99.90;;;;;;4993471;28;20042;-55
2023/05/18 03:16:40;;;;;;;1.77;1.10;;;10.60;99.90;;;;;;4993193;28;20025;-51
2023/05/18 03:19:06;;;;;;;1.38;1.00;;;10.60;99.90;;;;;;4992803;28;20038;-46
2023/05/18 03:21:35;;;;;;;3.78;1.63;;;10.70;99.90;;;;;;4992833;28;20026;-47
2023/05/18 03:24:04;;;;;;;1.27;0.85;;;10.70;99.90;;;;;;4992272;28;20026;-50
2023/05/18 03:26:30;;;;;;;3.47;0.90;;;10.60;99.90;;;;;;4992943;28;20030;-49
2023/05/18 03:28:56;;;;;;;2.67;1.15;;;10.60;99.90;;;;;;4992543;28;20065;-51
2023/05/18 03:31:22;;;;;;;0.70;0.70;;;10.60;99.90;;;;;;4992705;28;20481;-48
2023/05/18 03:33:48;;;;;;;0.80;0.70;;;10.60;99.90;;;;;;4993077;28;20110;-45
2023/05/18 03:36:15;;;;;;;0.85;0.82;;;10.60;99.90;;;;;;4991233;28;20026;-47
2023/05/18 03:38:44;;;;;;;5.07;1.60;;;10.60;99.90;;;;;;4992343;28;20493;-52
2023/05/18 03:41:10;;;;;;;1.65;1.10;;;10.60;99.90;;;;;;4992176;28;20061;-47
2023/05/18 03:43:36;;;;;;;2.38;0.93;;;10.60;99.90;;;;;;4992445;28;20040;-44
2023/05/18 03:46:01;;;;;;;2.47;0.93;;;10.60;99.90;;;;;;4992462;28;20034;-46
2023/05/18 03:48:28;;;;;;;1.08;0.88;;;10.60;99.90;;;;;;4992441;28;20034;-48
2023/05/18 03:50:53;;;;;;;17.05;1.30;;;10.60;99.90;;;;;;4992336;28;20023;-45
2023/05/18 03:53:20;;;;;;;6.72;1.13;;;10.50;99.90;;;;;;4992234;28;20437;-51
2023/05/18 03:55:48;;;;;;;2.58;0.52;;;10.60;99.90;;;;;;4992197;28;20030;-55
2023/05/18 03:58:14;;;;;;;2.28;1.10;;;10.50;99.90;;;;;;4992209;28;20030;-46
2023/05/18 04:00:41;;;;;;;1.52;1.42;;;10.50;99.90;;;;;;4992197;28;20034;-52
2023/05/18 04:03:11;;;;;;;1.10;0.85;;;10.50;99.90;;;;;;4992153;28;20030;-44
2023/05/18 04:05:36;;;;;;;;;;;10.50;99.90;;;;;;4992951;28;20030;-45
2023/05/18 04:08:02;;;;;;;0.85;0.65;;;10.50;99.90;;;;;;4992037;28;20349;-47
2023/05/18 04:10:27;;;;;;;2.35;1.42;;;10.60;99.90;;;;;;4991884;28;20041;-54
2023/05/18 04:12:53;;;;;;;3.60;1.15;;;10.60;99.90;;;;;;4992082;28;20036;-53
2023/05/18 04:15:19;;;;;;;1.00;0.98;;;10.60;99.90;;;;;;4991836;28;20588;-53
2023/05/18 04:17:44;;;;;;;1.17;0.98;;;10.60;99.90;;;;;;4991265;28;20034;-45
2023/05/18 04:20:13;;;;;;;1.85;1.33;;;10.60;99.90;;;;;;4991234;28;20398;-54
2023/05/18 04:22:45;;;;;;;1.85;1.02;;;10.60;99.90;;;;;;4991328;28;20042;-50
2023/05/18 04:25:12;;;;;;;1.38;1.27;;;10.50;99.90;;;;;;4991123;28;20470;-46
2023/05/18 04:27:39;;;;;;;3.15;1.23;;;10.50;99.90;;;;;;4991377;28;20466;-52
2023/05/18 04:30:07;;;;;;;7.53;1.13;;;10.50;99.90;;;;;;4991664;28;20057;-49
2023/05/18 04:32:35;;;;;;;1.00;0.68;;;10.50;99.90;;;;;;4991687;28;20026;-54
2023/05/18 04:35:02;;;;;;;2.45;1.20;;;10.60;99.90;;;;;;4990540;28;20410;-49
2023/05/18 04:37:28;;;;;;;3.22;1.88;;;10.50;99.90;;;;;;4991543;28;20477;-53
2023/05/18 04:39:54;;;;;;;1.08;0.98;;;10.60;99.90;;;;;;4991442;28;20687;-46
2023/05/18 04:42:19;;;;;;;1.67;0.73;;;10.60;99.90;;;;;;4991303;28;20061;-50
2023/05/18 04:44:47;;;;;;;0.70;0.70;;;10.60;99.90;;;;;;4991377;28;20029;-50
2023/05/18 04:47:13;;;;;;;1.10;0.93;;;10.60;99.90;;;;;;4991317;28;20478;-46
2023/05/18 04:49:38;;;;;;;2.35;1.17;;;10.60;99.90;;;;;;4991470;28;20030;-44
2023/05/18 04:52:06;;;;;;;3.53;1.67;;;10.60;99.90;;;;;;4991061;28;20153;-49
2023/05/18 04:54:32;;;;;;;2.05;1.08;;;10.60;99.90;;;;;;4991475;28;20153;-52
2023/05/18 04:56:58;;;;;;;2.83;1.60;;;10.70;99.90;;;;;;4990974;28;20538;-53
2023/05/18 04:59:25;;;;;;;1.02;0.70;;;10.70;99.90;;;;;;4991168;28;20037;-52
2023/05/18 05:01:54;;;;;;;1.63;1.00;;;10.70;99.90;;;;;;4989890;28;20074;-51
2023/05/18 05:04:20;;;;;;;3.78;0.95;;;10.70;99.90;;;;;;4990999;28;20022;-49
2023/05/18 05:06:46;;;;;;;2.55;1.48;;;10.70;99.90;;;;;;4991027;28;20026;-45
2023/05/18 05:09:13;;;;;;;1.55;0.65;;;10.70;99.90;;;;;;4991089;28;20086;-46
2023/05/18 05:11:40;;;;;;;1.20;1.00;;;10.70;99.90;;;;;;4991355;28;20026;-47
2023/05/18 05:14:06;;;;;;;1.30;1.10;;;10.80;99.90;;;;;;4991668;28;20089;-50
2023/05/18 05:16:31;;;;;;;2.85;1.33;;;10.80;99.90;;;;;;4990923;28;20026;-46
2023/05/18 05:18:57;;;;;;;1.30;0.65;;;10.90;99.90;;;;;;4990725;28;20374;-50
2023/05/18 05:21:22;;;;;;;2.25;1.35;;;11.00;99.90;;;;;;5005832;28;20054;-45
2023/05/18 05:23:48;;;;;;;2.50;1.30;;;11.10;99.90;;;;;;4997367;28;20022;-46
2023/05/18 05:26:13;;;;;;;2.08;1.52;;;11.20;99.90;;;;;;4994243;28;20097;-44
2023/05/18 05:28:39;;;;;;;2.92;1.30;;;11.30;99.90;;;;;;4990625;28;20022;-51
2023/05/18 05:31:05;;;;;;;2.20;1.20;;;11.30;99.90;;;;;;4990903;28;20436;-44
2023/05/18 05:33:31;;;;;;;2.97;1.45;;;11.40;99.90;;;;;;4990852;28;20062;-46
2023/05/18 05:35:57;;;;;;;2.90;0.82;;;11.40;99.90;;;;;;4990811;28;20033;-44
2023/05/18 05:38:22;;;;;;;1.95;1.15;;;11.40;99.90;;;;;;4990547;28;20027;-44
2023/05/18 05:40:48;;;;;;;9.05;2.33;;;11.50;99.90;;;;;;4990846;28;20030;-46
2023/05/18 05:43:14;;;;;;;2.38;1.42;;;11.70;99.90;;;;;;4990566;28;20125;-51
2023/05/18 05:45:41;;;;;;;2.70;0.90;;;11.90;99.90;;;;;;4990725;28;20105;-44
2023/05/18 05:48:07;;;;;;;1.20;1.10;;;12.00;99.90;;;;;;4994205;28;20073;-48
2023/05/18 05:50:32;;;;;;;5.30;1.95;;;12.30;99.90;;;;;;4994333;28;20112;-50
2023/05/18 05:52:58;;;;;;;7.97;2.25;;;12.50;99.90;;;;;;4994724;28;20026;-54
2023/05/18 05:55:24;;;;;;;1.60;1.15;;;12.80;99.90;;;;;;4994458;28;20030;-42
2023/05/18 05:57:50;;;;;;;11.65;2.22;;;13.30;99.90;;;;;;4994398;28;20022;-43
2023/05/18 06:00:16;;;;;;;2.00;0.85;;;13.70;99.90;;;;;;4994212;28;20038;-48
2023/05/18 06:02:41;;;;;;;5.30;2.10;;;14.10;99.90;;;;;;4994315;28;20025;-55
2023/05/18 06:05:08;;;;;;;3.22;1.60;;;14.60;99.90;;;;;;4994141;28;20030;-53
2023/05/18 06:07:34;;;;;;;4.80;1.30;;;15.00;99.90;;;;;;4994346;28;20390;-49
2023/05/18 06:10:00;;;;;;;1.92;1.05;;;15.20;99.90;;;;;;4994269;28;20033;-41
2023/05/18 06:12:26;;;;;;;7.93;2.03;;;15.50;99.90;;;;;;4993892;28;20015;-50
2023/05/18 06:14:56;;;;;;;2.75;0.98;;;15.80;99.90;;;;;;4994279;28;20787;-55
2023/05/18 06:17:22;;;;;;;2.38;0.90;;;16.10;99.90;;;;;;4994037;28;20110;-51
2023/05/18 06:19:47;;;;;;;4.15;1.08;;;16.50;99.90;;;;;;4994000;28;20121;-44
2023/05/18 06:22:13;;;;;;;1.65;0.85;;;16.70;99.90;;;;;;4994016;28;20057;-46
2023/05/18 06:24:38;;;;;;;2.70;0.90;;;17.10;99.90;;;;;;4993840;28;20084;-48
2023/05/18 06:27:04;;;;;;;1.05;0.70;;;17.40;99.90;;;;;;4993953;28;20034;-48
2023/05/18 06:29:30;;;;;;;0.63;0.60;;;17.70;99.90;;;;;;4993704;28;20109;-45
2023/05/18 06:31:56;;;;;;;2.08;0.85;;;17.60;99.90;;;;;;4993841;28;20414;-49
2023/05/18 06:34:22;;;;;;;1.25;0.93;;;17.10;99.90;;;;;;4993587;28;20092;-45
2023/05/18 06:36:47;;;;;;;4.28;0.95;;;16.90;99.90;;;;;;4993897;28;20657;-50
2023/05/18 06:39:13;;;;;;;2.38;0.80;;;16.60;99.90;;;;;;4993740;28;20049;-43
2023/05/18 06:41:39;;;;;;;2.13;0.95;;;16.40;99.90;;;;;;4993462;28;20073;-47
2023/05/18 06:44:05;;;;;;;1.45;0.68;;;16.30;99.90;;;;;;4993503;28;20037;-42
2023/05/18 06:46:30;;;;;;;3.20;0.80;;;16.20;99.90;;;;;;5005258;28;20181;-42
2023/05/18 06:48:56;;;;;;;2.03;0.82;;;16.20;99.90;;;;;;4994631;28;20470;-42
2023/05/18 06:51:22;;;;;;;4.00;1.42;;;16.10;99.90;;;;;;4993620;28;20481;-42
2023/05/18 06:53:49;;;;;;;1.15;0.60;;;16.10;99.90;;;;;;4993113;28;20029;-56
2023/05/18 06:56:15;;;;;;;0.70;0.63;;;16.00;99.90;;;;;;4993407;28;20489;-47
2023/05/18 06:58:41;;;;;;;1.65;0.90;;;16.10;99.90;;;;;;4992085;28;20027;-47
2023/05/18 07:01:07;;;;;;;2.10;0.93;;;16.60;99.90;;;;;;4993316;28;20088;-55
2023/05/18 07:03:33;;;;;;;1.95;0.88;;;17.40;99.90;;;;;;4993308;28;20490;-50
2023/05/18 07:05:59;;;;;;;2.13;0.70;;;18.10;99.90;;;;;;4993116;28;20389;-49
2023/05/18 07:08:24;;;;;;;1.27;0.80;;;19.00;99.90;;;;;;4993190;28;20105;-46
2023/05/18 07:10:51;;;;;;;4.30;0.73;;;19.60;99.90;;;;;;4994020;28;20027;-47
2023/05/18 07:13:18;;;;;;;1.55;0.50;;;20.20;99.90;;;;;;5004007;28;20081;-45
2023/05/18 07:15:43;;;;;;;1.15;0.60;;;20.70;99.10;;;;;;4992821;28;20030;-45
2023/05/18 07:18:09;;;;;;;2.20;0.63;;;21.30;94.50;;;;;;4992798;28;20106;-47
2023/05/18 07:20:35;;;;;;;1.02;0.50;;;21.30;89.40;;;;;;4993091;28;20042;-48
2023/05/18 07:23:00;;;;;;;1.42;0.55;;;21.60;94.50;;;;;;4992836;28;20021;-45
2023/05/18 07:25:26;;;;;;;0.70;0.57;;;22.00;86.20;;;;;;4992900;28;20031;-51
2023/05/18 07:27:53;;;;;;;0.57;0.50;;;22.40;85.10;;;;;;4992624;28;20026;-52
2023/05/18 07:30:20;;;;;;;0.55;0.30;;;22.70;87.20;;;;;;4993112;28;20112;-48
2023/05/18 07:32:45;;;;;;;1.70;0.60;;;22.80;84.80;;;;;;4997993;28;20034;-53
2023/05/18 07:35:11;;;;;;;0.30;0.30;;;23.00;82.50;;;;;;4992659;28;20032;-50
2023/05/18 07:37:37;;;;;;;0.95;0.50;;;23.00;83.30;;;;;;4992739;28;20026;-42
2023/05/18 07:40:03;;;;;;;1.30;0.47;;;23.30;81.80;;;;;;4992132;28;20370;-42
2023/05/18 07:42:29;;;;;;;0.77;0.40;;;23.30;71.00;;;;;;4991009;28;20058;-44
2023/05/18 07:44:55;;;;;;;1.60;0.50;;;23.30;75.50;;;;;;4991998;28;20042;-46
2023/05/18 07:47:21;;;;;;;2.10;0.30;;;23.30;72.90;;;;;;4993333;28;20043;-53
2023/05/18 07:49:47;;;;;;;0.35;0.20;;;23.60;67.60;;;;;;5006992;28;20033;-50
2023/05/18 07:52:13;;;;;;;0.45;0.40;;;23.50;66.40;;;;;;4994857;28;20093;-56
2023/05/18 07:54:39;;;;;;;1.00;0.40;;;23.60;74.50;;;;;;4995638;28;20080;-54
2023/05/18 07:57:05;;;;;;;0.70;0.50;;;23.60;70.20;;;;;;4991969;28;20019;-45
2023/05/18 07:59:31;;;;;;;0.40;0.40;;;23.50;71.00;;;;;;4992128;28;20048;-49
2023/05/18 08:01:57;;;;;;;1.20;0.40;;;23.40;68.10;;;;;;4991655;28;20022;-56
2023/05/18 08:04:23;;;;;;;2.67;0.50;;;23.60;67.10;;;;;;4991895;28;20486;-45
2023/05/18 08:06:49;;;;;;;0.28;0.28;;;23.90;71.60;;;;;;4997209;28;20036;-56
2023/05/18 08:09:15;;;;;;;1.25;0.32;;;24.40;65.20;;;;;;4994360;28;20034;-47
2023/05/18 08:11:42;;;;;;;0.35;0.30;;;24.50;65.10;;;;;;4992077;28;20026;-47
2023/05/18 08:14:07;;;;;;;0.25;0.25;;;24.90;62.90;;;;;;4991698;28;20041;-44
2023/05/18 08:16:36;;;;;;;1.45;0.35;;;24.90;64.90;;;;;;4992201;28;20026;-51
2023/05/18 08:19:02;;;;;;;1.17;0.30;;;24.90;58.40;;;;;;4991969;28;20046;-48
2023/05/18 08:21:28;;;;;;;1.17;0.30;;;25.20;63.80;;;;;;4997461;28;20064;-45
2023/05/18 08:23:54;;;;;;;0.93;0.30;;;25.40;65.90;;;;;;4991721;28;20030;-47
2023/05/18 08:26:20;;;;;;;0.40;0.20;;;25.60;62.30;;;;;;4999922;28;20080;-48
2023/05/18 08:28:47;;;;;;;0.20;0.20;;;25.70;59.50;;;;;;4991499;28;20018;-43
2023/05/18 08:31:14;;;;;;;0.45;0.38;;;25.90;61.90;;;;;;4991961;28;20030;-50
2023/05/18 08:33:39;;;;;;;0.90;0.32;;;25.90;58.10;;;;;;4991569;28;20390;-49
2023/05/18 08:36:05;;;;;;;0.30;0.30;;;25.90;57.40;;;;;;5000461;28;20022;-52
2023/05/18 08:38:31;;;;;;;0.30;0.30;;;25.90;62.40;;;;;;4991429;28;20066;-45
2023/05/18 08:41:21;;;;;;;1.05;0.30;;;26.00;59.00;;;;;;4991351;28;20027;-48
2023/05/18 08:43:58;;;;;;;0.20;0.20;;;25.60;55.10;;;;;;4988262;28;20062;-47
2023/05/18 08:46:47;;;;;;;0.90;0.50;;;25.80;59.80;;;;;;4991794;28;20018;-51
2023/05/18 08:49:17;;;;;;;0.45;0.30;;;26.00;61.10;;;;;;4991612;28;20473;-46
2023/05/18 08:51:46;;;;;;;1.05;0.30;;;25.80;62.80;;;;;;4991636;28;20026;-48
2023/05/18 08:54:16;;;;;;;2.55;0.30;;;25.70;58.30;;;;;;4991416;28;20381;-51
2023/05/18 08:56:43;;;;;;;0.68;0.60;;;26.00;60.20;;;;;;4991543;28;20575;-51
2023/05/18 08:59:10;;;;;;;0.55;0.32;;;26.10;56.60;;;;;;4991093;28;20466;-45
2023/05/18 09:01:36;;;;;;;2.00;0.40;;;25.80;52.80;;;;;;4991507;28;20034;-49
2023/05/18 09:04:02;;;;;;;0.50;0.43;;;25.80;59.50;;;;;;4993092;28;20059;-46
2023/05/18 09:06:27;;;;;;;0.95;0.40;;;25.80;54.90;;;;;;4992887;28;20041;-45
2023/05/18 09:08:56;;;;;;;1.05;0.50;;;25.10;57.60;;;;;;4982750;28;20026;-48
2023/05/18 09:11:23;;;;;;;0.60;0.40;;;24.90;62.40;;;;;;4991307;28;20096;-43
2023/05/18 09:13:51;;;;;;;1.48;0.52;;;23.80;62.10;;;;;;4991225;28;20030;-44
2023/05/18 09:16:18;;;;;;;1.27;0.57;;;24.50;67.10;;;;;;4990710;28;20097;-45
2023/05/18 09:18:44;;;;;;;0.70;0.30;;;24.90;65.40;;;;;;4997172;28;20034;-47
2023/05/18 09:21:10;;;;;;;0.85;0.47;;;25.60;63.70;;;;;;4996827;28;20482;-47
2023/05/18 09:23:39;;;;;;;0.98;0.50;;;25.90;60.20;;;;;;4999394;28;20034;-53
2023/05/18 09:26:07;;;;;;;;;;;25.60;63.50;;;;;;5005928;28;20520;-45
2023/05/18 09:28:37;;;;;;;0.45;0.32;;;25.60;65.00;;;;;;4994991;28;20369;-47
2023/05/18 09:31:06;;;;;;;0.50;0.32;;;25.20;60.40;;;;;;4994981;28;20027;-44
2023/05/18 09:33:34;;;;;;;0.52;0.43;;;25.50;61.30;;;;;;4994895;28;20034;-42
2023/05/18 09:36:00;;;;;;;1.17;0.52;;;25.70;62.80;;;;;;4994973;28;20029;-44
2023/05/18 09:38:27;;;;;;;1.00;0.52;;;25.90;61.50;;;;;;4994696;28;20030;-51
2023/05/18 09:40:52;;;;;;;1.27;0.60;;;26.40;58.10;;;;;;4994762;28;20069;-47
2023/05/18 09:43:19;;;;;;;0.40;0.30;;;26.40;60.70;;;;;;4994646;28;20050;-45
2023/05/18 09:45:48;;;;;;;1.10;0.47;;;26.60;60.10;;;;;;4994746;28;20105;-50
2023/05/18 09:48:15;;;;;;;0.30;0.20;;;26.40;60.70;;;;;;4994943;28;20026;-47
2023/05/18 09:50:43;;;;;;;0.75;0.57;;;26.20;58.10;;;;;;5005126;28;20034;-50
2023/05/18 09:53:09;;;;;;;0.95;0.30;;;26.10;56.80;;;;;;4994651;28;20030;-44
2023/05/18 09:55:40;;;;;;;0.20;0.20;;;26.00;61.30;;;;;;4994691;28;20030;-53
2023/05/18 09:58:06;;;;;;;1.33;0.65;;;26.20;58.10;;;;;;4984599;28;20563;-50
2023/05/18 10:00:39;;;;;;;2.10;0.52;;;25.90;61.60;;;;;;4994393;28;20046;-52
2023/05/18 10:03:22;;;;;;;1.63;0.50;;;25.80;61.30;;;;;;4997100;28;20101;-55
2023/05/18 10:05:48;;;;;;;1.88;0.40;;;25.90;54.30;;;;;;4994549;28;20014;-47
2023/05/18 10:08:14;;;;;;;0.57;0.40;;;25.80;61.20;;;;;;4994594;28;20088;-43
2023/05/18 10:10:44;;;;;;;0.52;0.38;;;26.00;56.00;;;;;;5004701;28;20022;-59
2023/05/18 10:13:17;;;;;;;0.57;0.40;;;26.00;56.00;;;;;;5001760;28;20027;-47
2023/05/18 10:15:47;;;;;;;0.30;0.30;;;25.80;54.70;;;;;;4994130;28;20026;-46
2023/05/18 10:18:35;;;;;;;1.13;0.55;;;26.00;62.00;;;;;;4994168;28;20033;-47
2023/05/18 10:21:04;;;;;;;0.85;0.60;;;26.50;57.80;;;;;;4993465;28;20066;-46
2023/05/18 10:23:32;;;;;;;0.88;0.40;;;26.40;59.00;;;;;;4994020;28;20038;-51
2023/05/18 10:25:58;;;;;;;0.68;0.52;;;26.40;56.20;;;;;;4993663;28;20031;-46
2023/05/18 10:28:31;;;;;;;0.20;0.20;;;26.30;56.40;;;;;;4994138;28;20027;-49
2023/05/18 10:30:59;;;;;;;0.55;0.30;;;26.60;58.20;;;;;;4993786;28;20546;-46
2023/05/18 10:33:26;;;;;;;1.27;0.47;;;26.80;60.50;;;;;;4992658;28;20469;-45
2023/05/18 10:35:53;;;;;;;0.40;0.30;;;26.80;50.80;;;;;;4993938;28;20481;-46
2023/05/18 10:38:21;;;;;;;0.68;0.30;;;26.30;56.70;;;;;;4993754;28;20022;-44
2023/05/18 10:40:49;;;;;;;1.00;0.43;;;26.20;59.70;;;;;;5004032;28;20488;-45
2023/05/18 10:43:18;;;;;;;1.53;0.57;;;25.60;56.60;;;;;;4996319;28;20338;-46
2023/05/18 10:45:46;;;;;;;0.60;0.40;;;24.60;53.50;;;;;;5004517;28;20286;-47
2023/05/18 10:48:14;;;;;;;1.02;0.30;;;24.20;59.50;;;;;;5000896;28;20036;-47
2023/05/18 10:50:40;;;;;;;1.67;0.60;;;24.30;56.00;;;;;;5004616;28;20429;-48
2023/05/18 10:53:07;;;;;;;0.85;0.40;;;24.80;60.50;;;;;;4993741;28;20058;-47
2023/05/18 10:55:33;;;;;;;0.43;0.30;;;25.00;54.10;;;;;;5006309;28;20033;-41
2023/05/18 10:58:11;;;;;;;1.33;0.40;;;25.10;57.60;;;;;;4993522;28;20030;-46
2023/05/18 11:00:38;;;;;;;1.73;0.43;;;25.10;55.50;;;;;;4993317;28;20054;-47
2023/05/18 11:03:11;;;;;;;1.23;0.47;;;24.80;57.80;;;;;;4993391;28;20031;-41
2023/05/18 11:05:38;;;;;;;1.50;0.68;;;24.60;60.00;;;;;;4993123;28;20026;-49
2023/05/18 11:08:04;;;;;;;0.60;0.40;;;23.90;59.40;;;;;;4993581;28;20023;-52
2023/05/18 11:10:48;;;;;;;1.85;0.60;;;23.90;59.80;;;;;;4992051;28;20029;-51
2023/05/18 11:13:14;;;;;;;0.43;0.43;;;23.90;61.50;;;;;;4980834;28;20482;-40
2023/05/18 11:15:52;;;;;;;0.60;0.47;;;23.60;59.60;;;;;;4998529;28;20435;-44
2023/05/18 11:18:17;;;;;;;0.50;0.50;;;23.30;61.80;;;;;;4985679;28;20034;-43
2023/05/18 11:20:47;;;;;;;1.05;0.60;;;23.00;63.60;;;;;;4992729;28;20038;-42
2023/05/18 11:23:19;;;;;;;0.52;0.40;;;22.80;70.50;;;;;;4992947;28;20033;-45
2023/05/18 11:25:47;;;;;;;1.05;0.60;;;22.40;64.80;;;;;;4992562;28;20038;-45
2023/05/18 11:28:13;;;;;;;0.50;0.43;;;22.20;67.50;;;;;;4992832;28;20025;-51
2023/05/18 11:30:39;;;;;;;0.98;0.55;;;22.30;63.50;;;;;;4992738;28;20030;-42
2023/05/18 11:33:14;;;;;;;1.05;0.50;;;22.80;63.20;;;;;;4992412;28;20025;-48
2023/05/18 11:35:59;;;;;;;1.63;0.45;;;23.30;66.60;;;;;;4992675;28;20027;-49
2023/05/18 11:38:47;;;;;;;1.83;0.50;;;23.30;59.40;;;;;;4992067;28;20022;-46
2023/05/18 11:41:34;;;;;;;1.25;0.60;;;23.50;63.70;;;;;;4992511;28;20506;-50
2023/05/18 11:44:14;;;;;;;0.52;0.30;;;23.40;59.10;;;;;;4998785;28;20038;-42
2023/05/18 11:47:02;;;;;;;0.75;0.50;;;23.60;68.20;;;;;;4992304;28;20022;-47
2023/05/18 11:49:43;;;;;;;0.60;0.40;;;24.30;63.80;;;;;;4992563;28;20501;-43
2023/05/18 11:52:16;;;;;;;1.10;0.65;;;24.30;58.40;;;;;;4992267;28;20038;-46
2023/05/18 11:54:52;;;;;;;1.38;0.43;;;24.70;66.70;;;;;;4992374;28;20057;-57
2023/05/18 11:57:33;;;;;;;0.77;0.30;;;24.60;59.10;;;;;;4992089;28;20076;-48
2023/05/18 12:00:00;;;;;;;0.52;0.30;;;24.40;55.90;;;;;;4992136;28;20160;-52
2023/05/18 12:02:32;;;;;;;0.40;0.40;;;24.10;61.00;;;;;;4992567;28;20033;-47
2023/05/18 12:04:59;;;;;;;0.40;0.30;;;24.00;60.10;;;;;;5002934;28;20065;-46
2023/05/18 12:07:27;;;;;;;0.65;0.40;;;23.90;61.40;;;;;;4991954;28;20029;-42
2023/05/18 12:10:00;;;;;;;1.08;0.65;;;23.30;58.60;;;;;;4991851;28;20031;-47
2023/05/18 12:12:26;;;;;;;1.27;0.52;;;23.10;59.00;;;;;;4991819;28;20031;-45
2023/05/18 12:14:56;;;;;;;0.55;0.47;;;23.20;66.70;;;;;;4991975;28;20018;-52
2023/05/18 12:17:23;;;;;;;0.47;0.47;;;23.40;64.50;;;;;;4991944;28;20413;-49
2023/05/18 12:19:49;;;;;;;0.95;0.40;;;23.20;60.00;;;;;;4991710;28;20081;-45
2023/05/18 12:22:15;;;;;;;1.75;0.52;;;22.70;59.80;;;;;;4991699;28;20029;-44
2023/05/18 12:24:42;;;;;;;1.10;0.32;;;22.50;65.80;;;;;;4991545;28;20397;-53
2023/05/18 12:27:11;;;;;;;0.70;0.70;;;22.40;65.80;;;;;;4991831;28;20018;-48
2023/05/18 12:29:39;;;;;;;1.20;0.47;;;22.10;60.30;;;;;;4991577;28;20034;-40
2023/05/18 12:32:09;;;;;;;0.95;0.50;;;22.00;61.90;;;;;;4994568;28;20108;-50
2023/05/18 12:34:35;;;;;;;1.13;0.70;;;21.70;61.50;;;;;;5006386;28;20038;-42
2023/05/18 12:37:01;;;;;;;1.55;0.57;;;22.10;65.80;;;;;;5005832;28;20453;-41
2023/05/18 12:39:27;;;;;;;2.63;0.82;;;22.50;64.30;;;;;;5009284;28;20544;-46
2023/05/18 12:41:53;;;;;;;0.55;0.47;;;22.90;67.60;;;;;;4999102;28;20137;-49
2023/05/18 12:44:19;;;;;;;0.63;0.38;;;23.00;65.50;;;;;;4991437;28;20101;-48
2023/05/18 12:46:45;;;;;;;0.70;0.60;;;23.10;65.40;;;;;;4996424;28;20109;-48
2023/05/18 12:49:11;;;;;;;3.05;0.60;;;23.30;65.10;;;;;;4997256;28;20105;-53
2023/05/18 12:51:38;;;;;;;0.70;0.40;;;23.30;61.00;;;;;;4991251;28;20073;-56